Time;durP1;ratioP1;P1;durP2;ratioP2;P2;SDS_P1;SDS_P2;PMS_P1;PMS_P2;Temp;Humidity;BMP_temperature;BMP_pressure;BME280_temperature;BME280_humidity;BME280_pressure;Samples;Min_cycle;Max_cycle;Signal;HPM_P1;HPM_P2
2021/12/12 00:01:05;;;;;;;;;;;10.50;94.40;;;;;;4993891;28;19925;-76
2021/12/12 00:03:47;;;;;;;;;;;10.60;94.40;;;;;;4993137;28;20495;-77
2021/12/12 00:06:19;;;;;;;;;;;10.60;94.30;;;;;;4993551;28;19933;-75
2021/12/12 00:08:49;;;;;;;;;;;10.60;94.30;;;;;;4993299;28;20375;-76
2021/12/12 00:11:18;;;;;;;;;;;10.70;94.30;;;;;;4992478;28;20277;-76
2021/12/12 00:13:52;;;;;;;;;;;10.80;94.20;;;;;;4992044;28;20383;-75
2021/12/12 00:16:19;;;;;;;;;;;10.80;94.10;;;;;;4975850;28;19933;-76
2021/12/12 00:18:54;;;;;;;;;;;10.80;94.00;;;;;;4993273;28;19933;-76
2021/12/12 00:21:23;;;;;;;;;;;10.80;93.90;;;;;;4992826;28;19937;-77
2021/12/12 00:23:51;;;;;;;;;;;10.90;93.80;;;;;;4992973;28;19937;-76
2021/12/12 00:26:18;;;;;;;;;;;10.90;93.70;;;;;;4993379;28;19926;-76
2021/12/12 00:28:45;;;;;;;;;;;10.90;93.60;;;;;;4993506;28;19926;-77
2021/12/12 00:31:14;;;;;;;;;;;10.90;93.50;;;;;;4993899;28;19925;-77
2021/12/12 00:33:44;;;;;;;;;;;11.00;93.50;;;;;;4993272;28;20298;-75
2021/12/12 00:36:16;;;;;;;;;;;11.00;93.40;;;;;;4993381;28;19926;-77
2021/12/12 00:38:46;;;;;;;;;;;11.00;93.30;;;;;;4993933;28;19994;-77
2021/12/12 00:41:15;;;;;;;;;;;11.10;93.20;;;;;;4992111;28;19932;-77
2021/12/12 00:43:45;;;;;;;;;;;11.10;93.20;;;;;;4975772;28;19929;-76
2021/12/12 00:46:14;;;;;;;;;;;11.10;93.10;;;;;;4993109;28;19925;-76
2021/12/12 00:48:43;;;;;;;;;;;11.20;93.10;;;;;;4992760;28;20398;-77
2021/12/12 00:51:14;;;;;;;;;;;11.20;93.10;;;;;;4993572;28;19953;-77
2021/12/12 00:53:42;;;;;;;;;;;11.20;93.00;;;;;;4993786;28;19937;-77
2021/12/12 00:56:10;;;;;;;;;;;11.30;93.00;;;;;;4996961;28;19926;-76
2021/12/12 00:58:38;;;;;;;;;;;11.30;93.00;;;;;;4997552;28;20287;-77
2021/12/12 01:01:07;;;;;;;;;;;11.30;93.00;;;;;;4997213;28;20375;-77
2021/12/12 01:03:41;;;;;;;;;;;11.30;93.00;;;;;;4996248;28;19926;-77
2021/12/12 01:06:09;;;;;;;;;;;11.50;93.10;;;;;;4996272;28;19933;-77
2021/12/12 01:08:37;;;;;;;;;;;11.50;92.90;;;;;;4982337;28;19933;-77
2021/12/12 01:11:15;;;;;;;;;;;11.60;92.80;;;;;;4976447;28;20248;-77
2021/12/12 01:13:44;;;;;;;;;;;11.60;92.70;;;;;;4959622;28;19933;-77
2021/12/12 01:16:15;;;;;;;;;;;11.70;92.60;;;;;;4976607;28;19933;-77
2021/12/12 01:18:47;;;;;;;;;;;11.70;92.50;;;;;;4976531;28;19933;-77
2021/12/12 01:21:17;;;;;;;;;;;11.70;92.40;;;;;;4976484;28;19933;-77
2021/12/12 01:23:49;;;;;;;;;;;11.80;92.30;;;;;;4976401;28;19930;-77
2021/12/12 01:26:17;;;;;;;;;;;11.80;92.20;;;;;;4976095;28;19945;-77
2021/12/12 01:28:47;;;;;;;;;;;11.80;92.20;;;;;;4976370;28;19926;-77
2021/12/12 01:31:15;;;;;;;;;;;11.80;92.00;;;;;;4976442;28;19929;-77
2021/12/12 01:33:43;;;;;;;;;;;11.80;91.90;;;;;;4976173;28;19926;-77
2021/12/12 01:36:22;;;;;;;;;;;11.90;91.80;;;;;;4976004;28;20283;-77
2021/12/12 01:38:52;;;;;;;;;;;11.90;91.70;;;;;;4975786;28;19926;-76
2021/12/12 01:41:32;;;;;;;;;;;11.90;91.50;;;;;;4976331;28;19927;-77
2021/12/12 01:44:06;;;;;;;;;;;11.90;91.50;;;;;;4976183;28;19926;-77
2021/12/12 01:46:35;;;;;;;;;;;11.90;91.50;;;;;;4975935;28;19926;-77
2021/12/12 01:49:08;;;;;;;;;;;11.90;91.50;;;;;;4976064;28;19926;-77
2021/12/12 01:51:38;;;;;;;;;;;12.00;91.50;;;;;;4975455;28;19926;-77
2021/12/12 01:54:07;;;;;;;;;;;11.90;91.50;;;;;;4974788;28;19926;-77
2021/12/12 01:56:42;;;;;;;;;;;12.00;91.40;;;;;;4939476;29;19935;-77
2021/12/12 01:59:12;;;;;;;;;;;12.00;91.30;;;;;;4956424;28;19926;-77
2021/12/12 02:01:41;;;;;;;;;;;12.10;91.30;;;;;;4939407;29;20290;-77
2021/12/12 02:04:29;;;;;;;;;;;12.10;91.20;;;;;;4956526;28;19926;-77
2021/12/12 02:06:58;;;;;;;;;;;12.10;91.10;;;;;;4975106;28;20391;-77
2021/12/12 02:09:26;;;;;;;;;;;12.10;91.10;;;;;;4975282;28;20319;-78
2021/12/12 02:11:55;;;;;;;;;;;12.10;91.10;;;;;;4975877;28;19926;-77
2021/12/12 02:14:23;;;;;;;;;;;12.10;91.00;;;;;;4957746;28;19933;-77
2021/12/12 02:16:52;;;;;;;;;;;12.10;91.10;;;;;;4975498;28;19926;-77
2021/12/12 02:19:30;;;;;;;;;;;12.00;91.10;;;;;;4958474;28;19933;-77
2021/12/12 02:35:49;;;;;;;;;;;12.10;91.00;;;;;;4956632;28;19934;-78
2021/12/12 02:38:19;;;;;;;;;;;12.10;91.00;;;;;;4974680;28;19927;-77
2021/12/12 02:40:49;;;;;;;;;;;12.20;91.00;;;;;;4957532;28;19927;-77
2021/12/12 02:43:18;;;;;;;;;;;12.10;91.00;;;;;;4957674;28;19933;-77
2021/12/12 02:45:47;;;;;;;;;;;12.10;91.10;;;;;;4957784;28;19926;-77
2021/12/12 02:48:19;;;;;;;;;;;12.10;91.20;;;;;;4975022;28;20265;-77
2021/12/12 02:50:48;;;;;;;;;;;12.00;91.40;;;;;;4957716;28;20299;-77
2021/12/12 02:53:26;;;;;;;;;;;12.00;91.50;;;;;;4974176;28;20295;-76
2021/12/12 02:55:55;;;;;;;;;;;12.00;91.70;;;;;;4974713;28;19926;-75
2021/12/12 02:58:23;;;;;;;;;;;11.90;91.90;;;;;;4974759;28;19926;-75
2021/12/12 03:00:59;;;;;;;;;;;11.90;92.10;;;;;;4974830;28;20331;-75
2021/12/12 03:03:27;;;;;;;;;;;11.80;92.20;;;;;;4974520;28;19926;-75
2021/12/12 03:05:55;;;;;;;;;;;11.80;92.30;;;;;;4974401;28;19926;-75
2021/12/12 03:08:23;;;;;;;;;;;11.80;92.40;;;;;;4974502;28;20315;-75
2021/12/12 03:10:52;;;;;;;;;;;11.80;92.40;;;;;;4974443;28;19933;-75
2021/12/12 03:13:20;;;;;;;;;;;11.80;92.40;;;;;;4974394;28;19933;-75
2021/12/12 03:15:48;;;;;;;;;;;11.80;92.40;;;;;;4973967;28;20284;-75
2021/12/12 03:18:21;;;;;;;;;;;11.80;92.30;;;;;;4973755;28;20418;-75
2021/12/12 03:20:50;;;;;;;;;;;11.90;92.30;;;;;;4989050;28;20383;-75
2021/12/12 03:23:19;;;;;;;;;;;11.90;92.30;;;;;;4974226;28;20303;-75
2021/12/12 03:25:52;;;;;;;;;;;11.90;92.20;;;;;;4974387;28;20295;-75
2021/12/12 03:28:20;;;;;;;;;;;11.90;92.10;;;;;;4988541;28;20371;-75
2021/12/12 03:30:49;;;;;;;;;;;11.90;92.00;;;;;;4973819;28;19926;-75
2021/12/12 03:33:16;;;;;;;;;;;11.90;92.00;;;;;;4974558;28;20512;-75
2021/12/12 03:35:48;;;;;;;;;;;11.90;92.00;;;;;;4940890;28;19933;-75
2021/12/12 03:38:16;;;;;;;;;;;11.90;92.00;;;;;;4974065;28;19933;-75
2021/12/12 03:40:45;;;;;;;;;;;11.90;92.00;;;;;;4973899;28;19930;-75
2021/12/12 03:43:14;;;;;;;;;;;11.90;92.00;;;;;;4974009;28;19930;-75
2021/12/12 03:45:42;;;;;;;;;;;11.90;92.00;;;;;;4974281;28;19926;-75
2021/12/12 03:48:13;;;;;;;;;;;11.90;91.90;;;;;;4974140;28;20414;-75
2021/12/12 03:50:42;;;;;;;;;;;11.90;91.90;;;;;;4973911;28;19930;-75
2021/12/12 03:53:10;;;;;;;;;;;11.90;91.90;;;;;;4972840;28;19949;-75
2021/12/12 03:55:38;;;;;;;;;;;11.90;91.90;;;;;;4973932;28;19926;-75
2021/12/12 03:58:06;;;;;;;;;;;11.90;91.90;;;;;;4973466;28;19926;-75
2021/12/12 04:00:39;;;;;;;;;;;11.90;91.90;;;;;;4973998;28;19934;-75
2021/12/12 04:03:07;;;;;;;;;;;11.90;91.90;;;;;;4974330;28;20296;-74
2021/12/12 04:05:35;;;;;;;;;;;12.00;91.90;;;;;;4988667;28;19926;-74
2021/12/12 04:08:03;;;;;;;;;;;11.90;91.80;;;;;;4973347;28;19963;-75
2021/12/12 04:10:31;;;;;;;;;;;12.00;91.80;;;;;;4973725;28;20296;-75
2021/12/12 04:12:58;;;;;;;;;;;12.00;91.80;;;;;;4973812;28;20299;-75
2021/12/12 04:15:26;;;;;;;;;;;12.00;91.80;;;;;;4974300;28;19926;-75
2021/12/12 04:17:53;;;;;;;;;;;12.00;91.80;;;;;;4973929;28;19930;-75
2021/12/12 04:20:26;;;;;;;;;;;11.90;91.80;;;;;;4973509;28;20170;-75
2021/12/12 04:22:54;;;;;;;;;;;11.90;91.80;;;;;;4973701;28;19933;-76
2021/12/12 04:25:22;;;;;;;;;;;12.00;91.80;;;;;;4973915;28;19926;-75
2021/12/12 04:27:50;;;;;;;;;;;12.00;91.80;;;;;;4974350;28;19933;-75
2021/12/12 04:30:18;;;;;;;;;;;12.00;91.70;;;;;;4977417;28;20304;-75
2021/12/12 04:32:46;;;;;;;;;;;12.00;91.70;;;;;;4977306;28;19926;-75
2021/12/12 04:35:19;;;;;;;;;;;12.00;91.70;;;;;;4959909;28;19937;-75
2021/12/12 04:37:47;;;;;;;;;;;12.00;91.70;;;;;;4977532;28;19927;-76
2021/12/12 04:40:17;;;;;;;;;;;12.00;91.70;;;;;;4977239;28;19934;-75
2021/12/12 04:42:46;;;;;;;;;;;12.00;91.70;;;;;;4976359;28;19937;-75
2021/12/12 04:45:32;;;;;;;;;;;12.00;91.70;;;;;;4977713;28;20387;-75
2021/12/12 04:51:13;;;;;;;;;;;12.00;91.80;;;;;;4977914;28;19926;-74
2021/12/12 04:53:45;;;;;;;;;;;12.00;91.80;;;;;;4993393;28;19926;-74
2021/12/12 04:56:17;;;;;;;;;;;12.00;91.80;;;;;;4996339;28;19929;-75
2021/12/12 04:58:49;;;;;;;;;;;12.10;91.80;;;;;;4995853;28;19926;-75
2021/12/12 05:01:25;;;;;;;;;;;12.10;91.80;;;;;;4996294;28;19933;-75
2021/12/12 05:03:58;;;;;;;;;;;12.10;91.70;;;;;;4996705;28;20351;-75
2021/12/12 05:06:28;;;;;;;;;;;12.10;91.70;;;;;;4979422;28;20390;-75
2021/12/12 05:09:02;;;;;;;;;;;12.10;91.70;;;;;;4996252;28;19953;-75
2021/12/12 05:11:48;;;;;;;;;;;12.20;91.60;;;;;;4996238;28;19926;-75
2021/12/12 05:14:24;;;;;;;;;;;12.20;91.70;;;;;;4996205;28;19948;-75
2021/12/12 05:17:11;;;;;;;;;;;12.20;91.80;;;;;;4996017;28;19932;-75
2021/12/12 05:19:42;;;;;;;;;;;12.20;91.70;;;;;;4995089;28;19926;-75
2021/12/12 05:22:12;;;;;;;;;;;12.20;91.70;;;;;;4996037;28;19926;-75
2021/12/12 05:24:41;;;;;;;;;;;12.30;91.70;;;;;;4995736;28;19937;-75
2021/12/12 05:27:11;;;;;;;;;;;12.30;91.50;;;;;;4996027;28;19926;-74
2021/12/12 05:29:41;;;;;;;;;;;12.30;91.50;;;;;;4995818;28;19934;-73
2021/12/12 05:32:09;;;;;;;;;;;12.20;91.60;;;;;;4995827;28;19932;-73
2021/12/12 05:34:38;;;;;;;;;;;12.20;91.80;;;;;;4995626;28;19925;-74
2021/12/12 05:37:06;;;;;;;;;;;12.20;91.90;;;;;;4978212;28;20040;-74
2021/12/12 05:39:34;;;;;;;;;;;12.10;92.00;;;;;;4994784;28;20318;-74
2021/12/12 05:42:01;;;;;;;;;;;12.10;92.10;;;;;;4995648;28;19926;-74
2021/12/12 05:44:30;;;;;;;;;;;12.10;92.20;;;;;;4995040;28;19926;-74
2021/12/12 05:46:59;;;;;;;;;;;12.00;92.30;;;;;;4995384;28;19933;-74
2021/12/12 05:49:26;;;;;;;;;;;12.10;92.30;;;;;;4989242;28;20407;-75
2021/12/12 05:51:54;;;;;;;;;;;12.00;92.50;;;;;;4991926;28;20298;-75
2021/12/12 05:54:23;;;;;;;;;;;12.00;92.60;;;;;;4959479;28;19999;-74
2021/12/12 05:56:52;;;;;;;;;;;11.90;92.60;;;;;;4983278;28;19926;-73
2021/12/12 05:59:21;;;;;;;;;;;11.90;92.70;;;;;;4973848;28;19926;-74
2021/12/12 06:01:49;;;;;;;;;;;11.90;92.80;;;;;;4974578;28;19925;-73
2021/12/12 06:04:17;;;;;;;;;;;11.90;92.80;;;;;;4995325;28;19925;-73
2021/12/12 06:06:45;;;;;;;;;;;11.90;92.90;;;;;;4995227;28;19937;-73
2021/12/12 06:09:14;;;;;;;;;;;11.80;92.90;;;;;;4994887;28;19926;-73
2021/12/12 06:11:43;;;;;;;;;;;11.80;93.00;;;;;;4995194;28;19932;-74
2021/12/12 06:14:12;;;;;;;;;;;11.70;93.10;;;;;;4995134;28;19950;-73
2021/12/12 06:16:40;;;;;;;;;;;11.70;93.20;;;;;;4969468;28;20300;-74
2021/12/12 06:19:10;;;;;;;;;;;11.60;93.20;;;;;;4957482;28;19933;-73
2021/12/12 06:21:38;;;;;;;;;;;11.60;93.30;;;;;;4975572;28;19934;-74
2021/12/12 06:24:06;;;;;;;;;;;11.50;93.30;;;;;;4958315;28;19933;-73
2021/12/12 06:26:34;;;;;;;;;;;11.50;93.40;;;;;;4975342;28;19933;-74
2021/12/12 06:29:02;;;;;;;;;;;11.50;93.40;;;;;;4975351;28;19926;-73
2021/12/12 06:31:29;;;;;;;;;;;11.50;93.50;;;;;;4975542;28;19926;-73
2021/12/12 06:33:57;;;;;;;;;;;11.40;93.50;;;;;;4975307;28;19933;-73
2021/12/12 06:36:24;;;;;;;;;;;11.40;93.60;;;;;;4975290;28;19926;-73
2021/12/12 06:38:53;;;;;;;;;;;11.40;93.60;;;;;;4975120;28;20304;-73
2021/12/12 06:41:21;;;;;;;;;;;11.30;93.70;;;;;;4975026;28;20295;-73
2021/12/12 06:43:49;;;;;;;;;;;11.40;93.70;;;;;;4974572;28;19926;-74
2021/12/12 06:46:17;;;;;;;;;;;11.40;93.70;;;;;;4975016;28;19926;-73
2021/12/12 06:48:45;;;;;;;;;;;11.30;93.70;;;;;;4975004;28;19937;-74
2021/12/12 06:51:14;;;;;;;;;;;11.30;93.80;;;;;;4973745;28;19933;-74
2021/12/12 06:53:43;;;;;;;;;;;11.30;93.80;;;;;;4974066;28;20013;-75
2021/12/12 06:56:13;;;;;;;;;;;11.30;93.80;;;;;;4971341;28;20304;-74
2021/12/12 06:58:41;;;;;;;;;;;11.40;93.80;;;;;;4973145;28;20412;-74
2021/12/12 07:01:11;;;;;;;;;;;11.30;93.80;;;;;;4973717;28;19926;-74
2021/12/12 07:03:39;;;;;;;;;;;11.30;93.80;;;;;;4956762;28;19933;-74
2021/12/12 07:06:06;;;;;;;;;;;11.30;93.80;;;;;;4973898;28;19926;-74
2021/12/12 07:08:34;;;;;;;;;;;11.30;93.90;;;;;;4974479;28;19926;-75
2021/12/12 07:11:02;;;;;;;;;;;11.30;93.80;;;;;;4974596;28;19927;-75
2021/12/12 07:13:30;;;;;;;;;;;11.30;93.90;;;;;;4974570;28;19926;-75
2021/12/12 07:15:58;;;;;;;;;;;11.30;93.90;;;;;;4974568;28;20004;-75
2021/12/12 07:18:27;;;;;;;;;;;11.30;93.90;;;;;;4974518;28;20307;-75
2021/12/12 07:20:57;;;;;;;;;;;11.30;93.90;;;;;;4957273;28;19930;-75
2021/12/12 07:23:24;;;;;;;;;;;11.30;93.90;;;;;;4974527;28;19937;-75
2021/12/12 07:25:53;;;;;;;;;;;11.30;93.90;;;;;;4973561;28;19926;-75
2021/12/12 07:28:20;;;;;;;;;;;11.30;93.90;;;;;;4974239;28;19926;-75
2021/12/12 07:30:47;;;;;;;;;;;11.30;93.90;;;;;;4973870;28;19933;-75
2021/12/12 07:33:15;;;;;;;;;;;11.30;93.90;;;;;;4974167;28;19926;-75
2021/12/12 07:35:43;;;;;;;;;;;11.30;94.00;;;;;;4974055;28;19941;-75
2021/12/12 07:38:12;;;;;;;;;;;11.30;94.00;;;;;;4974218;28;19933;-75
2021/12/12 07:40:41;;;;;;;;;;;11.40;94.10;;;;;;4973875;28;19930;-75
2021/12/12 07:43:08;;;;;;;;;;;11.50;94.00;;;;;;4973918;28;19933;-76
2021/12/12 07:45:36;;;;;;;;;;;11.50;94.00;;;;;;4974138;28;19930;-75
2021/12/12 07:48:08;;;;;;;;;;;11.50;94.00;;;;;;4957161;28;19927;-76
2021/12/12 07:50:36;;;;;;;;;;;11.50;94.00;;;;;;4973683;28;20403;-75
2021/12/12 07:53:04;;;;;;;;;;;11.50;93.90;;;;;;4973487;28;19926;-73
2021/12/12 07:55:32;;;;;;;;;;;11.50;94.00;;;;;;4956436;28;19926;-73
2021/12/12 07:57:59;;;;;;;;;;;11.50;94.00;;;;;;4974027;28;19926;-74
2021/12/12 08:00:27;;;;;;;;;;;11.50;94.00;;;;;;4973826;28;20027;-74
2021/12/12 08:02:55;;;;;;;;;;;11.50;94.00;;;;;;4976087;28;19926;-74
2021/12/12 08:05:28;;;;;;;;;;;11.50;94.00;;;;;;4980322;28;20287;-74
2021/12/12 08:07:57;;;;;;;;;;;11.50;94.00;;;;;;4962805;28;19930;-74
2021/12/12 08:10:24;;;;;;;;;;;11.50;94.10;;;;;;4963043;28;19937;-74
2021/12/12 08:12:52;;;;;;;;;;;11.50;94.10;;;;;;4980330;28;20398;-74
2021/12/12 08:15:20;;;;;;;;;;;11.50;94.10;;;;;;4980264;28;19930;-74
2021/12/12 08:17:48;;;;;;;;;;;11.50;94.10;;;;;;4979684;28;19926;-75
2021/12/12 08:20:16;;;;;;;;;;;11.40;94.10;;;;;;4963017;28;19956;-74
2021/12/12 08:22:46;;;;;;;;;;;11.50;94.10;;;;;;4979755;28;19926;-74
2021/12/12 08:25:15;;;;;;;;;;;11.50;94.20;;;;;;4979921;28;19926;-75
2021/12/12 08:27:42;;;;;;;;;;;11.40;94.20;;;;;;4979512;28;20284;-75
2021/12/12 08:30:12;;;;;;;;;;;11.50;94.20;;;;;;4980177;28;20295;-74
2021/12/12 08:32:40;;;;;;;;;;;11.50;94.20;;;;;;4979595;28;19933;-74
2021/12/12 08:35:10;;;;;;;;;;;11.50;94.20;;;;;;4979831;28;19926;-75
2021/12/12 08:37:38;;;;;;;;;;;11.50;94.20;;;;;;4962858;28;19926;-75
2021/12/12 08:40:06;;;;;;;;;;;11.50;94.20;;;;;;4979644;28;19933;-75
2021/12/12 08:42:34;;;;;;;;;;;11.50;94.20;;;;;;4980148;28;19926;-75
2021/12/12 08:45:03;;;;;;;;;;;11.50;94.20;;;;;;4979688;28;20376;-75
2021/12/12 08:47:32;;;;;;;;;;;11.50;94.20;;;;;;4979965;28;20296;-74
2021/12/12 08:50:00;;;;;;;;;;;11.60;94.20;;;;;;4979497;28;19933;-74
2021/12/12 08:52:34;;;;;;;;;;;11.50;94.20;;;;;;4962849;28;19926;-74
2021/12/12 08:55:07;;;;;;;;;;;11.50;94.20;;;;;;4962547;28;19926;-74
2021/12/12 08:57:45;;;;;;;;;;;11.60;94.20;;;;;;4979119;28;19933;-74
2021/12/12 09:00:29;;;;;;;;;;;11.60;94.20;;;;;;4978828;28;19926;-74
2021/12/12 09:02:57;;;;;;;;;;;11.60;94.20;;;;;;4979866;28;19937;-74
2021/12/12 09:05:33;;;;;;;;;;;11.60;94.20;;;;;;4979211;28;19926;-74
2021/12/12 09:08:33;;;;;;;;;;;11.60;94.10;;;;;;4948307;28;19926;-74
2021/12/12 09:11:07;;;;;;;;;;;11.60;94.10;;;;;;4978783;28;19933;-76
2021/12/12 09:13:39;;;;;;;;;;;11.60;94.20;;;;;;4961919;28;19925;-73
2021/12/12 09:16:20;;;;;;;;;;;11.70;94.20;;;;;;4974916;28;19926;-73
2021/12/12 09:18:53;;;;;;;;;;;11.70;94.10;;;;;;4976716;28;19930;-73
2021/12/12 09:21:26;;;;;;;;;;;11.70;94.10;;;;;;4976592;28;19933;-73
2021/12/12 09:24:03;;;;;;;;;;;11.70;94.10;;;;;;4976612;28;19930;-73
2021/12/12 09:26:31;;;;;;;;;;;11.60;94.10;;;;;;4959383;28;19933;-73
2021/12/12 09:29:10;;;;;;;;;;;11.60;94.10;;;;;;4976346;28;19926;-74
2021/12/12 09:31:45;;;;;;;;;;;11.60;94.10;;;;;;4976508;28;19937;-74
2021/12/12 09:34:16;;;;;;;;;;;11.60;94.20;;;;;;4991349;28;20288;-76
2021/12/12 09:36:52;;;;;;;;;;;11.60;94.20;;;;;;4976375;28;20327;-74
2021/12/12 09:39:25;;;;;;;;;;;11.60;94.20;;;;;;4975147;28;19933;-74
2021/12/12 09:42:10;;;;;;;;;;;11.70;94.20;;;;;;4975919;28;19926;-74
2021/12/12 09:44:56;;;;;;;;;;;11.70;94.10;;;;;;4976218;28;19930;-74
2021/12/12 09:47:58;;;;;;;;;;;11.70;94.10;;;;;;4976520;28;19926;-74
2021/12/12 09:53:37;;;;;;;;;;;11.80;94.00;;;;;;4976180;28;19930;-74
2021/12/12 09:56:23;;;;;;;;;;;11.80;93.90;;;;;;4975954;28;19933;-73
2021/12/12 09:58:53;;;;;;;;;;;11.80;93.80;;;;;;4976304;28;20367;-74
2021/12/12 10:01:23;;;;;;;;;;;11.80;93.70;;;;;;4975851;28;19933;-74
2021/12/12 10:04:02;;;;;;;;;;;11.80;93.50;;;;;;4976219;28;19926;-74
2021/12/12 10:06:43;;;;;;;;;;;11.80;93.70;;;;;;4975534;28;19933;-74
2021/12/12 10:09:14;;;;;;;;;;;11.80;93.80;;;;;;4975608;28;19933;-74
2021/12/12 10:12:03;;;;;;;;;;;11.80;93.70;;;;;;4975762;28;19926;-74
2021/12/12 10:14:40;;;;;;;;;;;11.70;93.70;;;;;;4975662;28;19948;-77
2021/12/12 10:17:29;;;;;;;;;;;11.80;93.70;;;;;;4975532;28;20318;-76
2021/12/12 10:20:02;;;;;;;;;;;11.80;93.60;;;;;;4974792;28;19933;-75
2021/12/12 10:22:30;;;;;;;;;;;11.60;93.60;;;;;;4975132;28;19926;-75
2021/12/12 10:25:06;;;;;;;;;;;11.70;93.70;;;;;;4975466;28;20304;-74
2021/12/12 10:27:34;;;;;;;;;;;11.60;93.70;;;;;;4975256;28;19926;-74
2021/12/12 10:30:17;;;;;;;;;;;11.60;93.70;;;;;;4975197;28;19926;-74
2021/12/12 10:33:08;;;;;;;;;;;11.60;93.80;;;;;;4974695;28;19926;-74
2021/12/12 10:35:45;;;;;;;;;;;11.70;93.80;;;;;;4975017;28;19926;-74
2021/12/12 10:38:17;;;;;;;;;;;11.80;93.90;;;;;;4975307;28;19926;-75
2021/12/12 10:40:47;;;;;;;;;;;11.80;93.90;;;;;;4974834;28;19926;-75
2021/12/12 10:43:22;;;;;;;;;;;11.80;93.90;;;;;;4975045;28;19926;-76
2021/12/12 10:45:54;;;;;;;;;;;11.90;93.90;;;;;;4975214;28;19926;-75
2021/12/12 10:48:27;;;;;;;;;;;12.00;93.80;;;;;;4975072;28;19926;-76
2021/12/12 10:51:14;;;;;;;;;;;12.10;93.70;;;;;;4974689;28;20299;-76
2021/12/12 10:54:02;;;;;;;;;;;12.20;93.50;;;;;;4975274;28;19926;-76
2021/12/12 10:56:39;;;;;;;;;;;12.20;93.30;;;;;;4974752;28;20292;-76
2021/12/12 10:59:22;;;;;;;;;;;12.30;93.10;;;;;;4974153;28;19926;-76
2021/12/12 11:01:52;;;;;;;;;;;12.30;92.90;;;;;;4974881;28;19933;-76
2021/12/12 11:04:39;;;;;;;;;;;12.40;92.50;;;;;;4974535;28;20303;-76
2021/12/12 11:07:12;;;;;;;;;;;12.50;92.30;;;;;;4973554;28;19926;-76
2021/12/12 11:09:52;;;;;;;;;;;12.60;92.00;;;;;;4975038;28;19926;-74
2021/12/12 11:12:27;;;;;;;;;;;12.60;91.60;;;;;;4974592;28;19933;-76
2021/12/12 11:15:06;;;;;;;;;;;12.70;91.50;;;;;;4973809;28;19938;-75
2021/12/12 11:17:39;;;;;;;;;;;12.70;91.30;;;;;;4973664;28;19930;-76
2021/12/12 11:20:21;;;;;;;;;;;12.70;91.10;;;;;;4974671;28;19926;-75
2021/12/12 11:22:57;;;;;;;;;;;12.80;90.90;;;;;;4974516;28;19933;-75
2021/12/12 11:25:28;;;;;;;;;;;12.70;90.70;;;;;;4974556;28;19942;-76
2021/12/12 11:28:19;;;;;;;;;;;12.80;90.70;;;;;;4974370;28;19926;-76
2021/12/12 11:30:57;;;;;;;;;;;12.80;90.60;;;;;;4951877;28;19927;-76
2021/12/12 11:33:26;;;;;;;;;;;12.80;90.70;;;;;;4956729;28;19926;-75
2021/12/12 11:35:54;;;;;;;;;;;12.80;90.70;;;;;;4974178;28;19926;-75
2021/12/12 11:38:31;;;;;;;;;;;12.80;90.40;;;;;;4972795;28;19933;-75
2021/12/12 11:41:17;;;;;;;;;;;12.80;90.30;;;;;;4973742;28;19926;-75
2021/12/12 11:44:06;;;;;;;;;;;12.80;90.30;;;;;;4973567;28;21818;-75
2021/12/12 11:47:07;;;;;;;;;;;12.80;90.30;;;;;;4974084;28;19937;-75
2021/12/12 11:49:56;;;;;;;;;;;12.80;90.10;;;;;;4973890;28;19934;-75
2021/12/12 11:52:32;;;;;;;;;;;12.80;89.90;;;;;;4974005;28;19937;-76
2021/12/12 11:55:02;;;;;;;;;;;12.90;89.50;;;;;;4974456;28;19930;-75
2021/12/12 11:57:33;;;;;;;;;;;13.00;89.20;;;;;;4974267;28;19930;-75
2021/12/12 12:00:03;;;;;;;;;;;13.00;89.00;;;;;;4973265;28;19926;-76
2021/12/12 12:02:40;;;;;;;;;;;13.00;89.00;;;;;;4973440;28;19933;-76
2021/12/12 12:05:11;;;;;;;;;;;13.10;88.60;;;;;;4973704;28;19949;-77
2021/12/12 12:08:01;;;;;;;;;;;13.10;88.10;;;;;;4973520;28;19933;-76
2021/12/12 12:10:43;;;;;;;;;;;13.20;87.80;;;;;;4972974;28;19926;-76
2021/12/12 12:13:23;;;;;;;;;;;13.30;87.50;;;;;;4973854;28;19926;-77
2021/12/12 12:15:58;;;;;;;;;;;13.30;87.10;;;;;;4973229;28;19962;-77
2021/12/12 12:18:37;;;;;;;;;;;13.40;86.80;;;;;;4973899;28;19933;-77
2021/12/12 12:21:07;;;;;;;;;;;13.50;86.80;;;;;;4973789;28;19926;-77
2021/12/12 12:24:10;;;;;;;;;;;13.60;86.40;;;;;;4973713;28;19926;-77
2021/12/12 12:26:54;;;;;;;;;;;13.60;86.40;;;;;;4973756;28;19926;-77
2021/12/12 12:29:21;;;;;;;;;;;13.60;86.20;;;;;;4973374;28;19930;-77
2021/12/12 12:32:15;;;;;;;;;;;13.70;85.70;;;;;;4973836;28;19933;-76
2021/12/12 12:35:01;;;;;;;;;;;13.60;85.30;;;;;;4973713;28;19926;-75
2021/12/12 12:37:47;;;;;;;;;;;13.60;85.30;;;;;;4975495;28;20028;-75
2021/12/12 12:40:30;;;;;;;;;;;13.60;85.10;;;;;;4973454;28;19926;-77
2021/12/12 12:43:16;;;;;;;;;;;13.60;84.90;;;;;;4973504;28;19926;-76
2021/12/12 12:46:02;;;;;;;;;;;13.50;84.20;;;;;;4973442;28;19973;-76
2021/12/12 12:48:55;;;;;;;;;;;13.50;84.90;;;;;;4972775;28;19926;-77
2021/12/12 12:51:23;;;;;;;;;;;13.50;85.00;;;;;;4976392;28;19926;-77
2021/12/12 12:54:08;;;;;;;;;;;13.50;85.10;;;;;;4943934;28;19937;-77
2021/12/12 12:56:54;;;;;;;;;;;13.40;85.00;;;;;;4943756;28;19926;-77
2021/12/12 12:59:27;;;;;;;;;;;13.40;85.40;;;;;;4978392;28;19934;-78
2021/12/12 13:02:12;;;;;;;;;;;13.40;85.40;;;;;;4959722;28;19926;-78
2021/12/12 13:05:03;;;;;;;;;;;13.30;85.40;;;;;;4977029;28;19937;-78
2021/12/12 13:07:49;;;;;;;;;;;13.30;85.40;;;;;;4956547;28;19949;-77
2021/12/12 13:10:19;;;;;;;;;;;13.30;85.40;;;;;;4959046;28;19926;-78
2021/12/12 13:13:02;;;;;;;;;;;13.40;85.30;;;;;;4976871;28;19926;-78
2021/12/12 13:15:44;;;;;;;;;;;13.60;84.60;;;;;;4975614;28;19926;-78
2021/12/12 13:18:21;;;;;;;;;;;13.70;84.30;;;;;;4976537;28;20307;-78
2021/12/12 13:21:07;;;;;;;;;;;13.70;84.30;;;;;;4976528;28;19926;-78
2021/12/12 13:23:53;;;;;;;;;;;13.80;84.10;;;;;;4977025;28;19949;-78
2021/12/12 13:26:29;;;;;;;;;;;13.80;84.10;;;;;;4976561;28;20007;-78
2021/12/12 13:29:13;;;;;;;;;;;13.80;83.80;;;;;;4976534;28;19926;-78
2021/12/12 13:31:52;;;;;;;;;;;13.70;83.90;;;;;;4976491;28;19933;-78
2021/12/12 13:34:19;;;;;;;;;;;13.80;83.90;;;;;;4975622;28;19926;-78
2021/12/12 13:37:05;;;;;;;;;;;13.80;83.80;;;;;;4976180;28;20320;-78
2021/12/12 13:39:51;;;;;;;;;;;13.90;83.60;;;;;;4976170;28;19926;-78
2021/12/12 13:42:33;;;;;;;;;;;13.90;83.20;;;;;;4976364;28;19926;-78
2021/12/12 13:45:07;;;;;;;;;;;13.90;82.80;;;;;;4976096;28;19930;-78
2021/12/12 13:47:42;;;;;;;;;;;13.80;83.10;;;;;;4976208;28;19926;-78
2021/12/12 13:50:21;;;;;;;;;;;13.80;83.40;;;;;;4975748;28;19926;-78
2021/12/12 13:52:52;;;;;;;;;;;13.70;83.60;;;;;;4990882;28;19933;-78
2021/12/12 13:56:01;;;;;;;;;;;13.70;83.60;;;;;;4976011;28;19933;-78
2021/12/12 13:58:31;;;;;;;;;;;13.60;83.60;;;;;;4934179;29;19974;-78
2021/12/12 14:01:13;;;;;;;;;;;13.60;84.10;;;;;;4934510;29;19927;-78
2021/12/12 14:03:56;;;;;;;;;;;13.60;84.40;;;;;;4935083;29;19937;-78
2021/12/12 14:06:26;;;;;;;;;;;13.70;84.50;;;;;;4935152;29;19950;-77
2021/12/12 14:08:59;;;;;;;;;;;13.80;84.50;;;;;;4935126;29;19949;-78
2021/12/12 14:11:29;;;;;;;;;;;13.80;84.20;;;;;;4919069;29;20293;-78
2021/12/12 14:13:59;;;;;;;;;;;13.80;83.80;;;;;;4934981;29;19927;-78
2021/12/12 14:16:29;;;;;;;;;;;13.80;84.00;;;;;;4934912;29;19927;-78
2021/12/12 14:19:04;;;;;;;;;;;13.80;84.10;;;;;;4934887;29;19941;-78
2021/12/12 14:21:31;;;;;;;;;;;13.80;84.00;;;;;;4934775;29;19931;-77
2021/12/12 14:23:59;;;;;;;;;;;13.80;84.00;;;;;;4934832;29;19981;-78
2021/12/12 14:26:29;;;;;;;;;;;13.70;84.40;;;;;;4934808;29;20019;-78
2021/12/12 14:28:59;;;;;;;;;;;13.70;84.60;;;;;;4947997;28;20296;-77
2021/12/12 14:31:29;;;;;;;;;;;13.60;84.70;;;;;;4975697;28;19955;-77
2021/12/12 14:34:03;;;;;;;;;;;13.60;84.90;;;;;;4975436;28;19934;-78
2021/12/12 14:36:34;;;;;;;;;;;13.50;85.00;;;;;;4987257;28;19934;-77
2021/12/12 14:39:03;;;;;;;;;;;13.40;85.40;;;;;;4975171;28;19930;-77
2021/12/12 14:41:36;;;;;;;;;;;13.30;85.90;;;;;;4974368;28;20265;-77
2021/12/12 14:44:06;;;;;;;;;;;13.30;86.20;;;;;;4974297;28;19930;-78
2021/12/12 14:46:37;;;;;;;;;;;13.20;86.50;;;;;;4974951;28;20291;-77
2021/12/12 14:49:07;;;;;;;;;;;13.10;86.70;;;;;;4975071;28;19926;-77
2021/12/12 14:51:50;;;;;;;;;;;13.10;86.90;;;;;;4974989;28;20368;-78
2021/12/12 14:54:18;;;;;;;;;;;13.10;87.10;;;;;;4974927;28;19933;-78
2021/12/12 14:56:47;;;;;;;;;;;13.00;87.20;;;;;;4974323;28;19933;-78
2021/12/12 14:59:35;;;;;;;;;;;13.00;87.30;;;;;;4974826;28;19926;-77
2021/12/12 15:02:08;;;;;;;;;;;12.90;87.50;;;;;;4957828;28;19933;-78
2021/12/12 15:04:39;;;;;;;;;;;12.90;87.70;;;;;;4975191;28;19927;-78
2021/12/12 15:07:07;;;;;;;;;;;12.90;87.70;;;;;;4957620;28;19926;-78
2021/12/12 15:09:34;;;;;;;;;;;12.80;87.80;;;;;;4974733;28;20291;-78